Time;durP1;ratioP1;P1;durP2;ratioP2;P2;SDS_P1;SDS_P2;PMS_P1;PMS_P2;Temp;Humidity;BMP_temperature;BMP_pressure;BME280_temperature;BME280_humidity;BME280_pressure;Samples;Min_cycle;Max_cycle;Signal;HPM_P1;HPM_P2
2021/07/30 00:00:45;;;;;;;8.60;4.50;;;17.80;80.10;;;;;;5052469;28;20111;-86
2021/07/30 00:03:11;;;;;;;8.77;4.28;;;17.80;80.40;;;;;;5041387;28;20031;-84
2021/07/30 00:05:36;;;;;;;7.53;4.63;;;17.70;80.90;;;;;;5008987;28;20028;-84
2021/07/30 00:08:02;;;;;;;10.88;4.60;;;17.70;81.70;;;;;;5039244;28;20029;-84
2021/07/30 00:10:28;;;;;;;8.57;4.68;;;17.70;82.00;;;;;;5038177;28;20025;-85
2021/07/30 00:12:57;;;;;;;7.72;4.60;;;17.70;81.70;;;;;;5039104;28;20459;-85
2021/07/30 00:15:23;;;;;;;8.98;4.55;;;17.70;80.60;;;;;;5038704;28;20024;-85
2021/07/30 00:17:51;;;;;;;8.20;4.75;;;17.60;81.00;;;;;;5056808;28;20374;-85
2021/07/30 00:20:16;;;;;;;10.63;5.05;;;17.60;80.80;;;;;;5039012;28;20051;-85
2021/07/30 00:22:42;;;;;;;10.07;4.10;;;17.50;80.70;;;;;;5056698;28;20444;-85
2021/07/30 00:25:08;;;;;;;8.10;4.53;;;17.50;80.20;;;;;;5038693;28;20076;-85
2021/07/30 00:27:34;;;;;;;8.30;4.65;;;17.50;81.10;;;;;;5018685;28;20018;-84
2021/07/30 00:29:59;;;;;;;9.45;5.10;;;17.50;81.40;;;;;;4992917;28;20120;-85
2021/07/30 00:32:25;;;;;;;9.45;5.05;;;17.40;81.50;;;;;;5002895;28;20453;-85
2021/07/30 00:34:51;;;;;;;7.90;4.72;;;17.40;81.10;;;;;;4993983;28;20089;-85
2021/07/30 00:37:16;;;;;;;8.63;4.22;;;17.40;81.20;;;;;;5005988;28;20017;-85
2021/07/30 00:39:42;;;;;;;7.60;4.53;;;17.40;81.10;;;;;;5022125;28;20053;-84
2021/07/30 00:42:08;;;;;;;8.50;4.90;;;17.30;80.90;;;;;;5010549;28;20108;-85
2021/07/30 00:44:33;;;;;;;9.07;4.93;;;17.30;81.30;;;;;;5019705;28;20461;-85
2021/07/30 00:46:59;;;;;;;9.93;5.35;;;17.30;81.60;;;;;;5046874;28;20128;-85
2021/07/30 00:49:25;;;;;;;11.13;4.93;;;17.30;81.30;;;;;;5016292;28;20075;-85
2021/07/30 00:51:51;;;;;;;10.10;5.43;;;17.30;80.60;;;;;;5036491;28;20108;-85
2021/07/30 00:54:18;;;;;;;7.82;4.60;;;17.20;80.50;;;;;;5018137;28;20103;-85
2021/07/30 00:56:44;;;;;;;8.00;4.65;;;17.20;80.90;;;;;;5013365;28;20105;-85
2021/07/30 00:59:10;;;;;;;9.48;4.78;;;17.20;80.00;;;;;;5015925;28;20060;-85
2021/07/30 01:01:37;;;;;;;9.43;4.82;;;17.10;80.20;;;;;;5033135;28;20025;-85
2021/07/30 01:04:03;;;;;;;8.77;4.95;;;17.00;80.40;;;;;;5009002;28;20029;-85
2021/07/30 01:06:33;;;;;;;9.48;5.32;;;17.00;80.40;;;;;;5035356;28;20079;-85
2021/07/30 01:08:58;;;;;;;11.45;4.88;;;16.90;80.30;;;;;;5020861;28;20060;-85
2021/07/30 01:11:24;;;;;;;9.50;4.82;;;16.90;80.40;;;;;;5019175;28;20057;-85
2021/07/30 01:13:50;;;;;;;8.93;4.55;;;16.90;81.40;;;;;;5018045;28;20112;-85
2021/07/30 01:16:15;;;;;;;8.63;4.55;;;16.90;80.80;;;;;;5035605;28;20025;-82
2021/07/30 01:18:41;;;;;;;9.23;5.28;;;16.90;80.80;;;;;;5037257;28;20025;-81
2021/07/30 01:21:16;;;;;;;10.52;4.78;;;16.80;80.70;;;;;;5033558;28;20398;-82
2021/07/30 01:23:42;;;;;;;8.82;4.80;;;16.80;80.90;;;;;;5036883;28;20033;-82
2021/07/30 01:26:08;;;;;;;10.07;5.10;;;16.80;81.40;;;;;;5036898;28;20059;-82
2021/07/30 01:28:33;;;;;;;11.32;5.13;;;16.80;81.40;;;;;;5055102;28;20442;-82
2021/07/30 01:31:04;;;;;;;10.10;4.90;;;16.70;81.50;;;;;;5003604;28;20068;-82
2021/07/30 01:33:30;;;;;;;10.18;5.10;;;16.70;81.20;;;;;;5026679;28;20052;-82
2021/07/30 01:35:55;;;;;;;9.68;4.97;;;16.70;82.20;;;;;;5017282;28;20059;-82
2021/07/30 01:38:21;;;;;;;7.40;4.97;;;16.70;82.10;;;;;;5036912;28;20056;-82
2021/07/30 01:40:47;;;;;;;13.23;5.35;;;16.70;82.50;;;;;;5019199;28;20033;-82
2021/07/30 01:43:12;;;;;;;8.52;5.05;;;16.60;82.00;;;;;;5032593;28;20432;-82
2021/07/30 01:45:38;;;;;;;11.95;4.63;;;16.70;81.70;;;;;;5019751;28;20025;-82
2021/07/30 01:48:04;;;;;;;10.25;4.88;;;16.60;81.80;;;;;;5006524;28;20493;-82
2021/07/30 01:50:30;;;;;;;8.70;4.93;;;16.60;81.90;;;;;;5023980;28;20033;-82
2021/07/30 01:52:55;;;;;;;8.73;4.93;;;16.60;81.90;;;;;;5030725;28;20120;-82
2021/07/30 01:55:23;;;;;;;8.40;4.75;;;16.60;82.70;;;;;;5024000;28;20042;-82
2021/07/30 01:57:49;;;;;;;8.57;4.90;;;16.60;83.20;;;;;;5036552;28;20021;-82
2021/07/30 02:00:15;;;;;;;11.77;5.25;;;16.60;83.80;;;;;;5012012;28;20029;-82
2021/07/30 02:02:40;;;;;;;12.70;5.43;;;16.50;83.20;;;;;;5015441;28;20136;-82
2021/07/30 02:05:07;;;;;;;11.30;5.35;;;16.60;83.10;;;;;;5008807;28;20402;-82
2021/07/30 02:07:38;;;;;;;9.32;4.50;;;16.60;83.20;;;;;;5016422;28;20116;-82
2021/07/30 02:10:06;;;;;;;9.63;4.47;;;16.60;83.30;;;;;;5045803;28;20081;-82
2021/07/30 02:14:14;;;;;;;10.25;4.78;;;16.60;83.50;;;;;;5029357;28;20037;-82
2021/07/30 02:15:18;;;;;;;9.30;4.63;;;16.50;82.90;;;;;;5044387;28;20546;-82
2021/07/30 02:17:43;;;;;;;6.65;4.45;;;16.50;82.60;;;;;;5032451;28;20053;-82
2021/07/30 02:20:24;;;;;;;9.75;4.88;;;16.40;83.10;;;;;;5056689;28;20029;-82
2021/07/30 02:22:50;;;;;;;;;;;16.40;83.20;;;;;;5013655;28;20057;-82
2021/07/30 02:25:15;;;;;;;8.75;4.68;;;16.40;83.00;;;;;;5027762;28;19972;-82
2021/07/30 02:27:41;;;;;;;8.95;4.93;;;16.40;83.50;;;;;;4996792;28;20427;-82
2021/07/30 02:30:07;;;;;;;9.55;4.78;;;16.30;83.20;;;;;;4997828;28;20075;-82
2021/07/30 02:32:32;;;;;;;10.75;4.68;;;16.30;83.00;;;;;;5023691;28;20038;-82
2021/07/30 02:34:58;;;;;;;8.45;5.13;;;16.30;83.30;;;;;;5009198;28;20033;-82
2021/07/30 02:37:24;;;;;;;8.85;4.60;;;16.30;83.60;;;;;;5049374;28;20030;-82
2021/07/30 02:39:50;;;;;;;8.80;4.90;;;16.30;83.90;;;;;;5036592;28;20029;-82
2021/07/30 02:42:15;;;;;;;8.90;4.82;;;16.30;83.80;;;;;;5019725;28;20010;-82
2021/07/30 02:44:41;;;;;;;8.15;4.45;;;16.30;83.90;;;;;;5032546;28;20094;-82
2021/07/30 02:47:06;;;;;;;9.10;4.75;;;16.30;83.60;;;;;;5012785;28;20077;-82
2021/07/30 02:49:32;;;;;;;8.00;4.97;;;16.30;83.60;;;;;;5003026;28;20065;-82
2021/07/30 02:51:58;;;;;;;9.07;4.97;;;16.30;83.60;;;;;;5027804;28;20061;-82
2021/07/30 02:54:23;;;;;;;9.00;5.13;;;16.20;83.80;;;;;;5019227;28;20042;-82
2021/07/30 02:56:49;;;;;;;9.50;4.35;;;16.20;83.70;;;;;;5007342;28;20102;-82
2021/07/30 02:59:33;;;;;;;11.35;5.28;;;16.20;84.20;;;;;;5013207;28;20045;-80
2021/07/30 03:02:00;;;;;;;9.85;4.78;;;16.20;84.30;;;;;;5055190;28;20475;-82
2021/07/30 03:04:25;;;;;;;9.55;4.78;;;16.20;84.60;;;;;;5026634;28;20021;-82
2021/07/30 03:06:51;;;;;;;10.13;4.97;;;16.20;84.90;;;;;;5017801;28;20018;-82
2021/07/30 03:09:17;;;;;;;11.80;5.05;;;16.20;84.80;;;;;;5019012;28;20523;-82
2021/07/30 03:11:42;;;;;;;9.77;4.65;;;16.10;84.50;;;;;;4994936;28;20116;-85
2021/07/30 03:14:08;;;;;;;9.32;4.30;;;16.10;84.50;;;;;;4998552;28;20111;-85
2021/07/30 03:16:34;;;;;;;8.73;4.38;;;16.10;84.70;;;;;;4982670;28;20564;-85
2021/07/30 03:19:00;;;;;;;9.93;5.25;;;16.10;84.90;;;;;;5031330;28;20429;-85
2021/07/30 03:21:26;;;;;;;7.07;4.25;;;16.10;85.10;;;;;;5025787;28;20054;-84
2021/07/30 03:23:51;;;;;;;9.43;4.70;;;16.10;85.60;;;;;;5012682;28;20037;-84
2021/07/30 03:26:17;;;;;;;8.00;4.40;;;16.10;85.90;;;;;;5003288;28;20043;-84
2021/07/30 03:28:43;;;;;;;7.22;4.55;;;16.10;85.80;;;;;;5057900;28;20010;-85
2021/07/30 03:31:08;;;;;;;8.50;4.75;;;16.00;85.80;;;;;;5005613;28;20336;-84
2021/07/30 03:33:34;;;;;;;8.50;4.93;;;16.00;86.00;;;;;;4998383;28;20029;-85
2021/07/30 03:36:00;;;;;;;6.82;4.28;;;16.00;86.00;;;;;;4995383;28;20037;-84
2021/07/30 03:38:25;;;;;;;8.35;4.68;;;16.00;86.60;;;;;;4991935;28;20025;-85
2021/07/30 03:40:51;;;;;;;7.72;4.57;;;16.00;86.50;;;;;;4986066;28;20045;-85
2021/07/30 03:43:16;;;;;;;9.35;4.88;;;16.00;86.90;;;;;;5013350;28;20489;-84
2021/07/30 03:45:42;;;;;;;9.35;5.03;;;16.00;87.80;;;;;;5004217;28;20040;-85
2021/07/30 03:48:08;;;;;;;8.27;5.07;;;15.90;87.50;;;;;;4978795;28;20057;-85
2021/07/30 03:50:33;;;;;;;10.65;4.65;;;16.00;87.60;;;;;;5014548;28;20041;-85
2021/07/30 03:53:00;;;;;;;8.32;4.47;;;15.90;87.70;;;;;;4995284;28;20483;-85
2021/07/30 03:55:26;;;;;;;9.40;4.60;;;15.90;87.80;;;;;;5032196;28;20087;-85
2021/07/30 03:57:51;;;;;;;12.43;5.30;;;15.90;87.80;;;;;;5014713;28;20018;-85
2021/07/30 04:00:17;;;;;;;8.27;4.63;;;15.90;87.90;;;;;;4998071;28;20188;-85
2021/07/30 04:03:39;;;;;;;8.82;4.72;;;15.90;88.00;;;;;;5014619;28;20022;-85
2021/07/30 04:06:05;;;;;;;8.70;4.85;;;15.90;88.70;;;;;;5036597;28;20451;-85
2021/07/30 04:08:34;;;;;;;10.82;4.90;;;15.90;88.40;;;;;;4994373;28;20059;-85
2021/07/30 04:11:00;;;;;;;9.70;4.40;;;15.90;88.60;;;;;;5008956;28;20029;-85
2021/07/30 04:13:26;;;;;;;8.13;4.60;;;15.90;88.80;;;;;;5023979;28;20387;-85
2021/07/30 04:15:52;;;;;;;10.55;4.70;;;15.90;88.80;;;;;;5000148;28;20033;-85
2021/07/30 04:18:18;;;;;;;8.77;4.63;;;15.90;88.80;;;;;;4994327;28;20033;-85
2021/07/30 04:20:44;;;;;;;8.02;4.70;;;15.80;89.20;;;;;;5050729;22;20112;-85
2021/07/30 04:23:10;;;;;;;7.78;4.35;;;15.90;89.60;;;;;;5042622;28;20057;-85
2021/07/30 04:25:40;;;;;;;11.50;5.30;;;15.90;89.50;;;;;;5011387;28;20034;-85
2021/07/30 04:28:06;;;;;;;8.98;4.97;;;15.90;89.50;;;;;;5006741;28;20034;-85
2021/07/30 04:30:32;;;;;;;8.82;4.20;;;15.90;89.30;;;;;;5021071;28;20038;-85
2021/07/30 04:32:58;;;;;;;11.02;4.95;;;15.90;89.20;;;;;;5022077;28;20040;-85
2021/07/30 04:35:23;;;;;;;7.93;4.97;;;15.80;88.90;;;;;;5022582;28;20098;-85
2021/07/30 04:37:49;;;;;;;9.88;4.72;;;15.80;88.90;;;;;;5017585;28;20057;-83
2021/07/30 04:40:14;;;;;;;7.72;4.35;;;15.80;89.00;;;;;;5008736;28;20056;-85
2021/07/30 04:42:40;;;;;;;8.52;4.63;;;15.70;89.00;;;;;;5008758;28;20008;-85
2021/07/30 04:45:06;;;;;;;10.82;4.78;;;15.70;89.00;;;;;;5007430;28;20097;-85
2021/07/30 04:47:32;;;;;;;10.55;4.97;;;15.70;89.10;;;;;;5015157;28;20097;-85
2021/07/30 04:49:57;;;;;;;8.52;4.65;;;15.60;89.30;;;;;;5040660;28;20025;-85
2021/07/30 04:52:23;;;;;;;7.57;4.65;;;15.60;89.40;;;;;;5041030;28;20034;-85
2021/07/30 04:54:49;;;;;;;8.88;4.75;;;15.60;89.60;;;;;;5057373;28;20045;-85
2021/07/30 04:57:14;;;;;;;8.25;4.53;;;15.60;89.80;;;;;;5007310;28;20049;-85
2021/07/30 04:59:40;;;;;;;9.18;4.82;;;15.60;90.10;;;;;;5012878;28;20041;-84
2021/07/30 05:02:09;;;;;;;9.85;4.78;;;15.60;90.10;;;;;;5004391;28;20022;-85
2021/07/30 05:04:35;;;;;;;9.63;4.75;;;15.70;90.10;;;;;;5014211;28;20040;-85
2021/07/30 05:07:02;;;;;;;7.78;5.28;;;15.70;90.20;;;;;;5042519;28;20026;-84
2021/07/30 05:09:28;;;;;;;9.45;4.95;;;15.70;90.20;;;;;;5028634;28;20049;-84
2021/07/30 05:11:54;;;;;;;10.43;4.72;;;15.70;90.30;;;;;;5005739;28;20017;-84
2021/07/30 05:14:19;;;;;;;9.65;5.28;;;15.70;90.30;;;;;;5042727;28;20049;-84
2021/07/30 05:16:45;;;;;;;9.77;4.97;;;15.70;90.50;;;;;;5057626;28;20030;-84
2021/07/30 05:19:11;;;;;;;8.00;5.15;;;15.80;90.50;;;;;;5016802;28;20018;-85
2021/07/30 05:21:37;;;;;;;8.05;4.93;;;15.80;90.60;;;;;;5020978;28;20092;-85
2021/07/30 05:24:03;;;;;;;10.77;5.68;;;15.80;90.60;;;;;;4993242;28;20034;-84
2021/07/30 05:26:29;;;;;;;12.63;5.75;;;15.80;90.70;;;;;;5014826;28;20033;-84
2021/07/30 05:28:54;;;;;;;8.45;4.75;;;15.90;90.70;;;;;;5031141;28;20096;-85
2021/07/30 05:31:20;;;;;;;8.25;4.93;;;15.90;90.60;;;;;;5030586;28;20036;-85
2021/07/30 05:33:46;;;;;;;10.00;4.85;;;15.90;90.60;;;;;;5014414;28;20033;-85
2021/07/30 05:36:17;;;;;;;10.77;5.63;;;15.90;90.60;;;;;;5013986;28;20079;-85
2021/07/30 05:38:43;;;;;;;;;;;16.00;90.60;;;;;;5027297;28;20030;-85
2021/07/30 05:41:13;;;;;;;8.80;4.97;;;15.90;90.80;;;;;;5012793;28;19916;-85
2021/07/30 05:43:40;;;;;;;10.07;5.40;;;16.00;90.70;;;;;;5027742;28;20463;-85
2021/07/30 05:46:06;;;;;;;10.25;5.75;;;16.00;91.50;;;;;;5025081;28;20026;-85
2021/07/30 05:48:32;;;;;;;9.90;5.72;;;16.00;92.00;;;;;;5023142;28;20361;-85
2021/07/30 05:50:58;;;;;;;10.35;5.30;;;16.10;92.50;;;;;;5004794;28;20030;-85
2021/07/30 05:53:24;;;;;;;9.95;5.10;;;16.00;92.20;;;;;;5020411;28;20018;-85
2021/07/30 05:55:49;;;;;;;10.65;5.85;;;16.10;92.60;;;;;;4987840;28;20108;-85
2021/07/30 05:58:15;;;;;;;9.32;5.78;;;16.10;92.60;;;;;;4998255;28;20030;-85
2021/07/30 06:00:41;;;;;;;12.15;6.07;;;16.10;92.70;;;;;;5016747;28;20382;-85
2021/07/30 06:03:10;;;;;;;8.90;5.05;;;16.10;92.60;;;;;;5013060;28;20033;-85
2021/07/30 06:05:35;;;;;;;8.73;5.72;;;16.20;92.50;;;;;;4992667;28;20036;-84
2021/07/30 06:08:05;;;;;;;11.50;6.07;;;16.20;92.70;;;;;;4971381;28;20038;-85
2021/07/30 06:10:31;;;;;;;8.73;5.75;;;16.20;92.50;;;;;;4997277;28;20018;-85
2021/07/30 06:12:57;;;;;;;13.00;6.75;;;16.20;92.90;;;;;;5016092;28;20034;-85
2021/07/30 06:15:23;;;;;;;11.63;6.50;;;16.30;92.70;;;;;;5012775;28;20034;-84
2021/07/30 06:17:50;;;;;;;11.98;6.20;;;16.30;92.70;;;;;;4999985;28;20535;-85
2021/07/30 06:20:34;;;;;;;10.65;6.40;;;16.30;92.70;;;;;;5021377;28;20093;-84
2021/07/30 06:23:00;;;;;;;12.00;6.47;;;16.40;92.90;;;;;;5003429;28;20467;-84
2021/07/30 06:25:26;;;;;;;11.00;7.18;;;16.40;92.70;;;;;;5025556;28;20030;-84
2021/07/30 06:27:51;;;;;;;14.20;6.97;;;16.40;92.80;;;;;;5012411;28;20104;-85
2021/07/30 06:30:17;;;;;;;8.38;6.07;;;16.40;92.70;;;;;;5015903;28;20109;-85
2021/07/30 06:32:43;;;;;;;13.13;7.00;;;16.40;92.60;;;;;;5015588;28;20033;-85
2021/07/30 06:35:10;;;;;;;11.88;6.38;;;16.50;92.80;;;;;;4999399;28;20088;-85
2021/07/30 06:37:37;;;;;;;15.13;7.10;;;16.50;93.00;;;;;;4999144;28;20026;-84
2021/07/30 06:40:04;;;;;;;15.15;7.65;;;16.60;92.60;;;;;;5026192;28;20026;-85
2021/07/30 06:42:33;;;;;;;12.50;7.25;;;16.60;92.60;;;;;;4996499;28;20030;-85
2021/07/30 06:44:58;;;;;;;14.55;7.07;;;16.70;93.00;;;;;;5026989;28;20088;-84
2021/07/30 06:47:24;;;;;;;11.27;6.65;;;16.70;92.80;;;;;;5011609;28;20033;-84
2021/07/30 06:49:50;;;;;;;10.93;6.20;;;16.80;92.90;;;;;;5014967;28;20108;-84
2021/07/30 06:52:16;;;;;;;10.85;6.55;;;16.80;93.00;;;;;;5011913;28;20021;-85
2021/07/30 06:54:43;;;;;;;11.77;6.40;;;16.90;92.70;;;;;;5015208;28;20076;-85
2021/07/30 06:57:09;;;;;;;13.73;6.82;;;17.00;93.20;;;;;;4998688;28;20447;-85
2021/07/30 06:59:35;;;;;;;10.70;6.95;;;17.00;92.90;;;;;;5014534;28;20017;-85
2021/07/30 07:02:01;;;;;;;14.00;6.60;;;17.10;93.00;;;;;;5032964;28;20064;-85
2021/07/30 07:04:27;;;;;;;11.70;6.38;;;17.10;93.00;;;;;;5015171;28;20041;-84
2021/07/30 07:06:53;;;;;;;16.02;5.82;;;17.20;92.30;;;;;;5032785;28;20029;-84
2021/07/30 07:09:19;;;;;;;10.43;6.00;;;17.30;92.60;;;;;;4998941;28;20499;-84
2021/07/30 07:11:45;;;;;;;12.45;6.10;;;17.30;92.80;;;;;;4998499;28;20037;-84
2021/07/30 07:14:11;;;;;;;11.00;6.03;;;17.40;92.20;;;;;;5032569;28;20475;-84
2021/07/30 07:16:37;;;;;;;11.05;6.22;;;17.40;92.50;;;;;;5000894;28;20514;-82
2021/07/30 07:19:04;;;;;;;12.48;5.60;;;17.50;92.70;;;;;;4983843;28;20029;-82
2021/07/30 07:21:34;;;;;;;12.15;5.97;;;17.50;92.40;;;;;;4973132;28;20392;-83
2021/07/30 07:24:01;;;;;;;10.85;5.38;;;17.60;92.70;;;;;;4976366;28;20026;-84
2021/07/30 07:26:26;;;;;;;12.70;5.88;;;17.60;92.60;;;;;;4997160;28;20526;-81
2021/07/30 07:28:52;;;;;;;11.45;5.43;;;17.70;92.90;;;;;;4994585;28;20034;-87
2021/07/30 07:31:18;;;;;;;13.77;5.93;;;17.80;92.90;;;;;;4967579;28;20037;-83
2021/07/30 07:33:43;;;;;;;11.57;5.68;;;17.80;92.80;;;;;;5013129;28;20029;-84
2021/07/30 07:36:09;;;;;;;10.57;5.30;;;17.90;93.00;;;;;;4980808;28;20372;-84
2021/07/30 07:38:38;;;;;;;11.43;6.10;;;17.90;93.70;;;;;;4993975;28;20033;-84
2021/07/30 07:41:04;;;;;;;12.45;5.90;;;18.00;93.70;;;;;;4972889;28;20498;-84
2021/07/30 07:43:29;;;;;;;18.23;6.80;;;18.10;92.80;;;;;;4997313;28;20029;-82
2021/07/30 07:45:58;;;;;;;11.88;6.43;;;18.10;90.90;;;;;;4981339;28;20030;-83
2021/07/30 07:48:23;;;;;;;10.25;5.45;;;18.10;92.20;;;;;;4965271;28;20101;-85
2021/07/30 07:50:49;;;;;;;12.55;6.20;;;18.20;92.20;;;;;;4995641;28;20049;-84
2021/07/30 07:53:18;;;;;;;10.48;5.45;;;18.20;91.20;;;;;;4979286;28;20026;-84
2021/07/30 07:55:44;;;;;;;10.13;5.05;;;18.30;91.50;;;;;;4995330;28;20030;-85
2021/07/30 07:58:10;;;;;;;17.23;5.85;;;18.40;91.10;;;;;;5005471;28;20053;-84
2021/07/30 08:00:36;;;;;;;13.98;5.60;;;18.40;91.30;;;;;;5012493;28;20026;-84
2021/07/30 08:03:02;;;;;;;9.95;5.22;;;18.40;91.10;;;;;;4981244;28;20054;-84
2021/07/30 08:05:28;;;;;;;11.40;4.90;;;18.50;91.10;;;;;;5015440;28;20018;-84
2021/07/30 08:07:54;;;;;;;7.80;4.43;;;18.60;91.10;;;;;;4992332;28;20026;-85
2021/07/30 08:10:20;;;;;;;9.93;4.80;;;18.70;91.40;;;;;;4979120;28;20029;-84
2021/07/30 08:12:46;;;;;;;10.57;4.43;;;18.80;90.90;;;;;;5015898;28;20029;-84
2021/07/30 08:15:12;;;;;;;11.80;4.70;;;18.90;90.50;;;;;;5016290;28;20088;-85
2021/07/30 08:17:38;;;;;;;8.27;4.38;;;19.00;90.90;;;;;;4982201;28;20018;-85
2021/07/30 08:20:05;;;;;;;8.63;3.90;;;19.10;89.00;;;;;;5004917;28;20061;-85
2021/07/30 08:22:31;;;;;;;9.15;4.00;;;19.20;87.90;;;;;;4982769;28;20099;-85
2021/07/30 08:24:56;;;;;;;11.30;3.92;;;19.30;88.20;;;;;;4993121;28;20375;-85
2021/07/30 08:27:22;;;;;;;8.63;3.85;;;19.30;88.80;;;;;;5012183;28;20033;-84
2021/07/30 08:29:48;;;;;;;11.35;4.00;;;19.40;86.70;;;;;;4984947;28;20025;-85
2021/07/30 08:32:14;;;;;;;9.55;3.80;;;19.40;84.50;;;;;;4982407;28;20034;-85
2021/07/30 08:34:40;;;;;;;10.38;3.47;;;19.50;85.60;;;;;;4995171;28;20026;-85
2021/07/30 08:37:07;;;;;;;9.48;3.67;;;19.50;86.20;;;;;;4997783;28;20079;-85
2021/07/30 08:39:40;;;;;;;7.53;3.60;;;19.70;86.20;;;;;;4997899;28;20440;-85
2021/07/30 08:42:05;;;;;;;9.10;3.97;;;19.70;85.50;;;;;;4998350;28;20058;-85
2021/07/30 08:44:32;;;;;;;7.88;3.65;;;19.80;86.90;;;;;;4998258;28;20076;-86
2021/07/30 08:46:58;;;;;;;7.53;3.65;;;19.90;85.60;;;;;;4990505;28;20017;-85
2021/07/30 08:49:25;;;;;;;8.38;3.30;;;20.00;85.60;;;;;;5003767;28;20018;-86
2021/07/30 08:52:02;;;;;;;12.98;3.60;;;20.00;85.20;;;;;;4992520;28;20026;-85
2021/07/30 08:54:27;;;;;;;7.10;3.22;;;20.00;85.60;;;;;;4992442;28;20037;-84
2021/07/30 08:56:53;;;;;;;10.35;3.50;;;20.00;85.30;;;;;;4994727;28;20022;-84
2021/07/30 08:59:21;;;;;;;8.75;3.60;;;20.10;85.70;;;;;;4992644;28;20025;-84
2021/07/30 09:01:52;;;;;;;7.05;3.10;;;20.20;86.10;;;;;;4999327;28;20030;-84
2021/07/30 09:04:28;;;;;;;9.18;3.60;;;20.30;86.30;;;;;;5008684;28;20031;-83
2021/07/30 09:06:57;;;;;;;8.00;3.42;;;20.30;85.80;;;;;;5033020;28;20029;-84
2021/07/30 09:09:24;;;;;;;7.53;2.97;;;20.40;85.50;;;;;;4982498;28;20030;-84
2021/07/30 09:11:58;;;;;;;7.00;2.70;;;20.40;83.60;;;;;;4992039;28;20024;-84
2021/07/30 09:14:39;;;;;;;9.48;3.22;;;20.50;83.70;;;;;;4989134;28;20379;-84
2021/07/30 09:17:05;;;;;;;;;;;20.50;83.10;;;;;;4992226;28;20110;-85
2021/07/30 09:19:32;;;;;;;5.47;2.75;;;20.60;81.00;;;;;;5003291;28;20000;-84
2021/07/30 09:22:11;;;;;;;5.53;3.00;;;20.60;81.20;;;;;;4995477;28;20617;-85
2021/07/30 09:24:43;;;;;;;5.97;2.88;;;20.70;80.30;;;;;;5009048;28;20495;-84
2021/07/30 09:27:10;;;;;;;10.07;3.45;;;20.80;79.50;;;;;;4996715;28;20168;-85
2021/07/30 09:29:37;;;;;;;7.68;3.45;;;20.80;79.80;;;;;;5013151;28;20475;-85
2021/07/30 09:32:11;;;;;;;6.75;3.28;;;20.90;80.40;;;;;;5009764;28;20049;-84
2021/07/30 09:34:41;;;;;;;7.65;3.10;;;20.90;78.80;;;;;;4996910;28;20033;-84
2021/07/30 09:37:09;;;;;;;10.07;3.75;;;21.00;78.80;;;;;;5022127;28;20026;-84
2021/07/30 09:39:43;;;;;;;7.65;3.60;;;21.10;79.20;;;;;;5014466;28;20460;-84
2021/07/30 09:42:13;;;;;;;6.57;3.10;;;21.20;79.70;;;;;;5009862;28;20040;-84
2021/07/30 09:44:42;;;;;;;9.07;3.88;;;21.20;80.20;;;;;;5013098;28;20076;-85
2021/07/30 09:47:16;;;;;;;7.00;3.40;;;21.30;79.90;;;;;;5013184;28;20511;-84
2021/07/30 09:50:05;;;;;;;7.28;3.42;;;21.40;78.60;;;;;;5014326;28;20040;-85
2021/07/30 09:52:40;;;;;;;6.85;3.35;;;21.50;78.80;;;;;;5006005;28;20507;-85
2021/07/30 09:55:11;;;;;;;8.18;3.42;;;21.60;79.30;;;;;;5013039;28;20037;-85
2021/07/30 09:57:39;;;;;;;6.57;3.05;;;21.60;78.40;;;;;;4996868;28;20030;-84
2021/07/30 10:00:07;;;;;;;9.60;3.28;;;21.70;78.50;;;;;;5013897;28;20029;-85
2021/07/30 10:02:34;;;;;;;7.88;2.97;;;21.70;76.90;;;;;;5014269;28;20038;-84
2021/07/30 10:05:01;;;;;;;6.97;3.03;;;21.70;77.60;;;;;;5012713;28;20018;-84
2021/07/30 10:07:29;;;;;;;5.55;2.80;;;21.80;76.60;;;;;;4996866;28;20030;-84
2021/07/30 10:10:00;;;;;;;6.05;2.65;;;21.80;75.90;;;;;;5014094;28;20442;-84
2021/07/30 10:12:26;;;;;;;7.60;3.20;;;21.80;75.70;;;;;;4997307;28;20034;-84
2021/07/30 10:14:52;;;;;;;9.20;3.67;;;21.90;75.60;;;;;;5014387;28;20025;-84
2021/07/30 10:17:33;;;;;;;6.28;3.45;;;21.90;75.00;;;;;;5000425;28;20022;-83
2021/07/30 10:20:01;;;;;;;7.72;3.95;;;22.00;77.60;;;;;;5022488;22;20144;-84
2021/07/30 10:22:59;;;;;;;6.05;3.45;;;22.00;76.40;;;;;;4995981;28;20034;-84
2021/07/30 10:25:36;;;;;;;7.53;3.42;;;22.10;77.50;;;;;;4996958;28;20497;-84
2021/07/30 10:28:05;;;;;;;6.63;3.22;;;22.10;77.40;;;;;;4984074;28;20037;-85
2021/07/30 10:31:12;;;;;;;6.75;3.17;;;22.20;76.10;;;;;;4997648;28;20022;-85
2021/07/30 10:33:38;;;;;;;9.55;3.35;;;22.20;76.00;;;;;;4943179;29;20027;-87
2021/07/30 10:36:08;;;;;;;6.22;3.42;;;22.30;74.60;;;;;;5002037;28;20080;-84
2021/07/30 10:38:35;;;;;;;7.22;3.60;;;22.30;76.20;;;;;;4995723;28;20038;-83
2021/07/30 10:41:07;;;;;;;5.43;3.03;;;22.30;74.60;;;;;;4977419;28;20038;-83
2021/07/30 10:44:01;;;;;;;6.28;3.25;;;22.30;75.70;;;;;;4995605;28;20116;-83
2021/07/30 10:46:28;;;;;;;5.40;3.10;;;22.30;75.50;;;;;;4995404;28;20026;-84
2021/07/30 10:48:54;;;;;;;6.43;3.30;;;22.30;76.00;;;;;;4963430;28;20026;-82
2021/07/30 10:51:20;;;;;;;5.32;2.90;;;22.40;74.10;;;;;;5012986;28;20088;-82
2021/07/30 10:53:47;;;;;;;7.10;2.85;;;22.40;74.20;;;;;;4995763;28;20033;-83
2021/07/30 10:56:21;;;;;;;7.55;2.92;;;22.50;75.30;;;;;;5013577;28;20018;-84
2021/07/30 10:58:50;;;;;;;5.45;2.63;;;22.60;75.60;;;;;;5007829;28;20032;-85
2021/07/30 11:01:21;;;;;;;5.50;2.97;;;22.70;75.60;;;;;;4995474;28;20113;-86
2021/07/30 11:03:52;;;;;;;8.90;3.17;;;22.80;74.30;;;;;;5000121;28;20026;-86
2021/07/30 11:06:29;;;;;;;5.00;2.60;;;22.90;74.50;;;;;;4995461;28;20033;-85
2021/07/30 11:09:04;;;;;;;6.40;2.90;;;23.00;74.30;;;;;;5000229;28;20032;-85
2021/07/30 11:11:47;;;;;;;5.85;2.30;;;23.00;73.90;;;;;;5013232;28;20014;-82
2021/07/30 11:14:13;;;;;;;8.52;2.72;;;23.10;74.10;;;;;;4995131;28;20048;-86
2021/07/30 11:16:46;;;;;;;6.05;2.95;;;23.10;74.50;;;;;;4995765;28;20022;-84
2021/07/30 11:19:14;;;;;;;4.85;2.72;;;23.20;74.90;;;;;;4989453;28;20113;-84
2021/07/30 11:21:40;;;;;;;5.82;2.70;;;23.20;72.10;;;;;;4986654;28;20042;-83
2021/07/30 11:24:07;;;;;;;4.97;2.97;;;23.30;71.80;;;;;;4977028;28;20045;-83
2021/07/30 11:26:34;;;;;;;5.32;2.72;;;23.30;73.50;;;;;;4994940;28;20022;-83
2021/07/30 11:29:02;;;;;;;7.78;3.03;;;23.40;73.00;;;;;;5012202;28;20036;-84
2021/07/30 11:31:28;;;;;;;7.38;3.00;;;23.40;71.90;;;;;;5000049;28;20120;-84
2021/07/30 11:33:55;;;;;;;5.47;2.80;;;23.50;73.00;;;;;;4978107;28;20041;-84
2021/07/30 11:36:21;;;;;;;5.80;2.60;;;23.50;73.70;;;;;;5001384;28;20034;-86
2021/07/30 11:38:54;;;;;;;5.60;2.88;;;23.60;73.30;;;;;;4980238;28;20117;-86
2021/07/30 11:41:21;;;;;;;5.05;2.58;;;23.70;72.50;;;;;;4995992;28;20373;-86
2021/07/30 11:44:04;;;;;;;5.70;3.30;;;23.80;72.30;;;;;;4994926;28;20105;-87
2021/07/30 11:46:31;;;;;;;6.10;2.50;;;23.90;71.20;;;;;;4974816;28;20031;-85
2021/07/30 11:48:59;;;;;;;3.90;2.47;;;24.00;70.60;;;;;;4987910;28;20467;-85
2021/07/30 11:51:25;;;;;;;5.60;2.50;;;24.00;70.20;;;;;;4968842;28;20041;-85
2021/07/30 11:53:52;;;;;;;5.85;2.60;;;24.00;71.10;;;;;;4970057;28;20503;-85
2021/07/30 11:56:19;;;;;;;4.13;2.65;;;24.10;72.70;;;;;;4984468;28;20054;-85
2021/07/30 11:58:55;;;;;;;5.07;2.60;;;24.10;70.50;;;;;;5006654;28;20030;-85
2021/07/30 12:01:21;;;;;;;4.13;2.50;;;24.20;71.40;;;;;;4979839;28;20037;-85
2021/07/30 12:04:05;;;;;;;4.25;2.58;;;24.20;70.30;;;;;;4968202;28;20014;-85
2021/07/30 12:06:35;;;;;;;7.05;2.80;;;24.20;71.00;;;;;;4991372;28;20026;-85
2021/07/30 12:09:02;;;;;;;4.97;2.75;;;24.20;70.10;;;;;;4988374;28;20030;-86
2021/07/30 12:11:28;;;;;;;5.55;2.65;;;24.20;70.30;;;;;;4980261;28;20022;-86
2021/07/30 12:13:54;;;;;;;3.05;2.33;;;24.10;69.40;;;;;;4960834;28;20037;-85
2021/07/30 12:16:20;;;;;;;6.57;2.80;;;24.10;69.20;;;;;;4970708;28;20069;-86
2021/07/30 12:18:45;;;;;;;6.47;2.75;;;24.10;70.20;;;;;;4972593;28;20081;-86
2021/07/30 12:21:11;;;;;;;4.65;2.60;;;24.10;70.10;;;;;;4974856;28;20451;-86
2021/07/30 12:23:37;;;;;;;5.47;2.80;;;24.10;70.70;;;;;;4958842;28;20026;-86
2021/07/30 12:26:03;;;;;;;6.32;3.15;;;24.00;70.00;;;;;;4962805;28;20065;-86
2021/07/30 12:28:42;;;;;;;5.70;2.70;;;24.00;69.60;;;;;;4978454;28;20078;-86
2021/07/30 12:31:14;;;;;;;5.60;2.75;;;24.00;69.40;;;;;;4994374;28;20032;-86
2021/07/30 12:33:40;;;;;;;5.78;2.83;;;23.90;69.10;;;;;;4978150;28;20034;-85
2021/07/30 12:36:10;;;;;;;5.05;2.80;;;23.90;68.50;;;;;;4961767;28;20053;-85
2021/07/30 12:39:03;;;;;;;5.68;2.80;;;23.90;69.30;;;;;;4978448;28;20030;-87
2021/07/30 12:41:30;;;;;;;6.18;2.60;;;23.90;68.20;;;;;;4994092;28;20043;-86
2021/07/30 12:44:12;;;;;;;4.00;2.42;;;23.90;68.00;;;;;;4994353;28;20026;-86
2021/07/30 12:46:49;;;;;;;4.32;2.90;;;23.90;68.30;;;;;;5011758;28;20025;-85
2021/07/30 12:49:31;;;;;;;4.80;2.78;;;23.90;68.10;;;;;;4994102;28;20033;-85